Weather History for Glencoe, MN

Change the Weather History Date:

Saturday, November 16, 2013

  Actual Average (KHCD) Record (KHCD)
Temperature  
Mean Temperature 44 °F -  
Max Temperature 49 °F 41 °F 140 °F (2001)
Min Temperature 40 °F 22 °F -5 °F (1997)
Degree Days  
Heating Degree Days 20    
Moisture  
Dew Point 41 °F    
Average Humidity 85    
Maximum Humidity 92    
Minimum Humidity 69    
Precipitation  
Precipitation 0.06 in - - ()
Sea Level Pressure  
Sea Level Pressure 29.38 in    
Wind  
Wind Speed 9 mph (SSE)    
Max Wind Speed 14 mph    
Max Gust Speed 20 mph    
Visibility 6 miles    
Events Fog , Rain    
Averages and records for this station are not official NWS values.
T = Trace of Precipitation, MM = Missing Value Source: NWS Daily Summary

Daily Weather History Graph

Daily Weather History Graph

Search for Another Location

Airport:

Trip Planner

Search our weather history database for the weather conditions in past years. The results will help you decide how hot, cold, wet, or windy it might be!

Date:

Astronomy

Nov. 16, 2013 Rise Set
Actual Time 7:15 AM CST 4:46 PM CST
Civil Twilight 6:43 AM CST 5:18 PM CST
Nautical Twilight 6:07 AM CST 5:54 PM CST
Astronomical Twilight 5:33 AM CST 6:28 PM CST
Moon 4:24 PM CST (11/16) 6:09 AM CST (11/16)
Length of Visible Light 10h 35m
Length of Day
9h 31m
Waxing Gibbous, 99% of the Moon is Illuminated
Nov 16
Waxing Gibbous
Nov 17
Full
Nov 25
Last Quarter
Dec 2
New
Dec 9
First Quarter

Hourly Weather History & Observations

Time (CST) Temp. Windchill Dew Point Humidity Pressure Visibility Wind Dir Wind Speed Gust Speed Precip Events Conditions
12:13 AM 42.8 °F 37.5 °F 33.1 °F 69% 29.59 in 10.0 mi SSE 9.2 mph - N/A   Clear
12:33 AM 42.8 °F 37.5 °F 33.3 °F 69% 29.58 in 10.0 mi SSE 9.2 mph - N/A   Clear
12:53 AM 42.8 °F 37.0 °F 33.8 °F 70% 29.57 in 10.0 mi SSE 10.4 mph - N/A   Clear
1:13 AM 43.2 °F 37.4 °F 34.5 °F 72% 29.57 in 10.0 mi SSE 10.4 mph - N/A   Clear
1:33 AM 43.2 °F 37.4 °F 34.9 °F 73% 29.56 in 10.0 mi SSE 10.4 mph - N/A   Clear
1:53 AM 43.0 °F 38.2 °F 35.2 °F 74% 29.55 in 10.0 mi SSE 8.1 mph - N/A   Clear
2:13 AM 42.6 °F 37.8 °F 35.1 °F 75% 29.56 in 10.0 mi SSE 8.1 mph - N/A   Clear
2:33 AM 42.6 °F 37.8 °F 35.4 °F 76% 29.56 in 10.0 mi SSE 8.1 mph 16.1 mph N/A   Clear
2:53 AM 42.6 °F 37.2 °F 35.6 °F 76% 29.55 in 10.0 mi SSE 9.2 mph - N/A   Clear
3:13 AM 42.4 °F 36.1 °F 35.8 °F 77% 29.54 in 10.0 mi SSE 11.5 mph 18.4 mph N/A   Clear
3:33 AM 42.1 °F 37.1 °F 35.6 °F 78% 29.53 in 10.0 mi SSE 8.1 mph 16.1 mph N/A   Clear
3:53 AM 41.9 °F 35.9 °F 35.6 °F 78% 29.52 in 10.0 mi SSE 10.4 mph 17.3 mph N/A   Clear
4:13 AM 41.4 °F 36.8 °F 35.6 °F 80% 29.52 in 10.0 mi South 6.9 mph 16.1 mph N/A   Clear
4:33 AM 41.0 °F 35.8 °F 35.6 °F 81% 29.52 in 10.0 mi SSE 8.1 mph - N/A   Clear
4:53 AM 40.6 °F 36.7 °F 35.4 °F 82% 29.51 in 10.0 mi SSE 5.8 mph - N/A   Clear
5:13 AM 40.5 °F 35.8 °F 35.6 °F 83% 29.50 in 10.0 mi SSE 6.9 mph - N/A   Clear
5:33 AM 40.6 °F 34.3 °F 36.0 °F 83% 29.48 in 10.0 mi SSE 10.4 mph - N/A   Clear
5:53 AM 41.0 °F 35.2 °F 36.3 °F 83% 29.48 in 10.0 mi SSE 9.2 mph - N/A   Clear
6:13 AM 41.0 °F 36.4 °F 36.5 °F 84% 29.48 in 10.0 mi SSE 6.9 mph - N/A   Clear
6:33 AM 41.0 °F 35.8 °F 36.5 °F 84% 29.47 in 10.0 mi SE 8.1 mph - N/A   Clear
6:53 AM 40.6 °F 34.8 °F 36.5 °F 85% 29.46 in 10.0 mi SSE 9.2 mph - N/A   Clear
7:13 AM 41.2 °F 34.5 °F 36.9 °F 85% 29.46 in 10.0 mi SSE 11.5 mph - N/A   Clear
7:33 AM 41.9 °F 35.9 °F 37.4 °F 84% 29.45 in 10.0 mi SSE 10.4 mph - N/A   Clear
7:53 AM 42.1 °F 35.7 °F 37.8 °F 85% 29.45 in 7.0 mi SE 11.5 mph - N/A   Mostly Cloudy
8:13 AM 43.2 °F 36.2 °F 38.7 °F 84% 29.45 in 7.0 mi SSE 13.8 mph 17.3 mph N/A   Overcast
8:33 AM 43.9 °F 37.9 °F 39.4 °F 84% 29.45 in 5.0 mi SSE 11.5 mph 19.6 mph N/A   Haze
8:53 AM 44.6 °F 39.2 °F 40.3 °F 85% 29.45 in 5.0 mi SSE 10.4 mph - N/A   Haze
9:13 AM 45.5 °F 39.6 °F 41.0 °F 84% 29.44 in 4.0 mi SSE 12.7 mph 17.3 mph N/A   Overcast
9:33 AM 45.7 °F 41.0 °F 41.5 °F 85% 29.43 in 4.0 mi SE 9.2 mph 16.1 mph N/A   Overcast
9:53 AM 46.0 °F 40.6 °F 41.9 °F 85% 29.43 in 4.0 mi SE 11.5 mph - N/A   Overcast
10:13 AM 46.4 °F 41.5 °F 42.3 °F 85% 29.43 in 3.0 mi SE 10.4 mph - N/A   Overcast
10:33 AM 46.4 °F 41.9 °F 42.8 °F 87% 29.40 in 1.8 mi ESE 9.2 mph - N/A   Overcast
10:53 AM 46.6 °F - 43.0 °F 87% 29.40 in 2.0 mi SE 10.4 mph - N/A   Overcast
11:13 AM 46.8 °F - 43.3 °F 88% 29.40 in 2.0 mi ESE 8.1 mph - N/A   Overcast
11:33 AM 46.6 °F - 43.2 °F 88% 29.38 in 1.2 mi ESE 11.5 mph - N/A   Overcast
11:53 AM 46.4 °F 41.1 °F 43.3 °F 89% 29.35 in 1.0 mi ESE 11.5 mph - N/A Rain Light Rain
12:13 PM 46.8 °F - 43.7 °F 89% 29.34 in 1.2 mi ESE 10.4 mph - N/A Rain Rain
12:33 PM 46.8 °F - 43.7 °F 89% 29.33 in 1.2 mi East 10.4 mph - 0.01 in Rain Light Rain
12:53 PM 47.1 °F - 44.1 °F 89% 29.31 in 1.0 mi East 12.7 mph - 0.04 in Rain Light Rain
1:13 PM 47.5 °F - 44.6 °F 90% 29.30 in 1.0 mi East 11.5 mph - N/A   Drizzle
1:33 PM 47.5 °F - 44.6 °F 90% 29.29 in 1.2 mi East 12.7 mph - 0.01 in   Drizzle
1:53 PM 47.3 °F - 44.2 °F 89% 29.27 in 1.8 mi East 11.5 mph - 0.01 in   Light Drizzle
2:13 PM 47.5 °F - 44.8 °F 90% 29.26 in 2.5 mi East 11.5 mph - N/A   Overcast
2:33 PM 47.7 °F - 44.8 °F 90% 29.25 in 2.0 mi East 10.4 mph - N/A   Drizzle
2:53 PM 48.0 °F - 45.3 °F 90% 29.24 in 2.5 mi East 8.1 mph - 0.01 in Rain Rain
3:13 PM 48.4 °F - 45.7 °F 90% 29.24 in 3.0 mi East 8.1 mph - N/A   Overcast
3:33 PM 48.6 °F - 45.9 °F 90% 29.24 in 3.0 mi East 6.9 mph - N/A   Overcast
3:53 PM 48.7 °F - 46.0 °F 90% 29.23 in 2.5 mi East 4.6 mph - N/A Rain Light Rain
4:13 PM 48.9 °F - 46.2 °F 90% 29.23 in 2.5 mi East 4.6 mph - N/A   Overcast
4:33 PM 49.1 °F - 46.4 °F 90% 29.22 in 2.5 mi East 3.5 mph - N/A   Overcast
4:53 PM 49.1 °F - 46.4 °F 90% 29.22 in 3.0 mi Calm Calm - N/A   Overcast
5:13 PM 49.1 °F - 46.4 °F 90% 29.23 in 2.5 mi Calm Calm - N/A   Overcast
5:33 PM 48.4 °F - 45.7 °F 90% 29.23 in 1.5 mi Calm Calm - N/A   Overcast
5:53 PM 47.7 °F - 45.0 °F 90% 29.23 in 0.5 mi Calm Calm - N/A Fog Fog
6:13 PM 46.9 °F - 44.2 °F 90% 29.24 in 0.2 mi Calm Calm - N/A Fog Fog
6:33 PM 47.1 °F - 44.6 °F 91% 29.25 in 0.5 mi Calm Calm - N/A Fog Fog
6:53 PM 47.3 °F - 44.8 °F 91% 29.25 in 0.8 mi SSW 3.5 mph - N/A   Overcast
7:13 PM 49.6 °F - 47.3 °F 92% 29.26 in 5.0 mi SW 8.1 mph - N/A   Overcast
7:33 PM 49.5 °F - 46.9 °F 91% 29.27 in 7.0 mi SW 8.1 mph - N/A   Overcast
7:53 PM 48.2 °F - 45.5 °F 90% 29.28 in 7.0 mi SW 5.8 mph - N/A   Mostly Cloudy
8:13 PM 47.7 °F - 43.5 °F 86% 29.28 in 10.0 mi SSW 6.9 mph - N/A   Clear
8:33 PM 47.5 °F - 42.4 °F 83% 29.28 in 10.0 mi SSW 6.9 mph - N/A   Clear
8:53 PM 47.1 °F - 42.1 °F 83% 29.29 in 10.0 mi SSW 5.8 mph - N/A   Clear
9:13 PM 45.7 °F 42.0 °F 41.2 °F 84% 29.30 in 7.0 mi South 6.9 mph - N/A   Clear
9:33 PM 45.1 °F 43.7 °F 41.4 °F 87% 29.29 in 7.0 mi South 3.5 mph - N/A   Clear
9:53 PM 44.1 °F 41.5 °F 40.5 °F 87% 29.29 in 5.0 mi South 4.6 mph - N/A   Clear
10:13 PM 43.7 °F 40.3 °F 40.1 °F 87% 29.29 in 5.0 mi South 5.8 mph - N/A   Clear
10:33 PM 42.6 °F 39.9 °F 39.2 °F 88% 29.30 in 5.0 mi South 4.6 mph - N/A   Clear
10:53 PM 42.4 °F 38.8 °F 39.2 °F 88% 29.30 in 7.0 mi South 5.8 mph - N/A   Clear
11:13 PM 42.3 °F 37.9 °F 38.8 °F 88% 29.31 in 7.0 mi South 6.9 mph - N/A   Clear
11:33 PM 41.9 °F 38.2 °F 37.9 °F 86% 29.30 in 7.0 mi South 5.8 mph - N/A   Clear
11:53 PM 41.9 °F 37.5 °F 37.6 °F 85% 29.31 in 10.0 mi SSW 6.9 mph - N/A   Clear